Time;durP1;ratioP1;P1;durP2;ratioP2;P2;SDS_P1;SDS_P2;PMS_P1;PMS_P2;Temp;Humidity;BMP_temperature;BMP_pressure;BME280_temperature;BME280_humidity;BME280_pressure;Samples;Min_cycle;Max_cycle;Signal;HPM_P1;HPM_P2
2022/09/10 00:00:13;;;;;;;7.45;3.30;;;;;;;12.63;65.07;101131.21;1710462;82;21563;-62
2022/09/10 00:02:40;;;;;;;6.15;3.12;;;;;;;12.63;65.26;101132.53;1706038;82;21075;-62
2022/09/10 00:05:10;;;;;;;7.42;3.42;;;;;;;12.63;65.56;101135.17;1649655;85;21106;-62
2022/09/10 00:07:38;;;;;;;9.18;2.77;;;;;;;12.61;65.98;101137.09;1649819;85;21007;-62
2022/09/10 00:10:05;;;;;;;7.75;3.30;;;;;;;12.55;66.23;101138.04;1646155;85;21129;-62
2022/09/10 00:12:33;;;;;;;7.80;3.25;;;;;;;12.49;66.80;101134.54;1646954;85;21105;-62
2022/09/10 00:15:00;;;;;;;8.23;3.20;;;;;;;12.42;67.09;101127.56;1651642;85;21621;-61
2022/09/10 00:17:26;;;;;;;6.60;3.05;;;;;;;12.43;67.31;101137.18;1649755;85;21094;-62
2022/09/10 00:19:53;;;;;;;6.53;2.98;;;;;;;12.47;67.42;101132.02;1661086;84;21857;-61
2022/09/10 00:22:21;;;;;;;7.03;2.95;;;;;;;12.47;67.39;101128.55;1688216;83;21036;-62
2022/09/10 00:24:47;;;;;;;8.10;2.80;;;;;;;12.49;67.45;101122.20;1694787;83;21480;-62
2022/09/10 00:27:14;;;;;;;6.60;2.90;;;;;;;12.48;67.65;101128.92;1737538;80;21103;-62
2022/09/10 00:29:40;;;;;;;9.35;2.80;;;;;;;12.44;67.64;101117.27;1727628;80;21046;-62
2022/09/10 00:32:07;;;;;;;6.05;2.85;;;;;;;12.40;67.63;101124.20;1739228;80;21148;-62
2022/09/10 00:34:33;;;;;;;7.75;3.17;;;;;;;12.31;68.07;101120.97;1742852;80;21489;-61
2022/09/10 00:37:00;;;;;;;6.67;3.02;;;;;;;12.29;68.27;101124.17;1726107;80;21099;-61
2022/09/10 00:39:27;;;;;;;7.58;3.08;;;;;;;12.30;68.37;101121.42;1738115;80;21035;-62
2022/09/10 00:41:53;;;;;;;5.67;2.80;;;;;;;12.33;68.44;101115.91;1733375;81;21027;-61
2022/09/10 00:44:44;;;;;;;9.03;3.22;;;;;;;12.35;68.32;101115.80;1738984;80;21140;-61
2022/09/10 00:47:24;;;;;;;7.72;3.72;;;;;;;12.30;68.36;101115.31;1731996;81;21012;-62
2022/09/10 00:49:59;;;;;;;6.05;3.08;;;;;;;12.21;68.57;101112.41;1733660;81;21083;-62
2022/09/10 00:52:27;;;;;;;6.72;3.47;;;;;;;12.15;68.71;101105.43;1732416;80;21130;-62
2022/09/10 00:54:54;;;;;;;7.22;3.05;;;;;;;12.13;68.92;101106.03;1723109;80;21118;-62
2022/09/10 00:57:22;;;;;;;5.20;2.80;;;;;;;12.18;69.12;101106.03;1701287;82;22251;-62
2022/09/10 00:59:53;;;;;;;6.30;3.20;;;;;;;12.20;68.99;101104.12;1739545;81;21070;-61
2022/09/10 01:02:20;;;;;;;6.30;3.20;;;;;;;12.22;68.99;101109.28;1735711;80;21078;-62
2022/09/10 01:04:46;;;;;;;6.55;3.08;;;;;;;12.19;69.23;101102.45;1736302;80;21110;-61
2022/09/10 01:07:13;;;;;;;6.97;3.10;;;;;;;12.16;69.42;101101.85;1732864;80;21098;-61
2022/09/10 01:09:40;;;;;;;9.33;3.60;;;;;;;12.13;69.60;101098.95;1739492;80;21146;-61
2022/09/10 01:12:18;;;;;;;5.97;3.33;;;;;;;12.11;69.78;101102.19;1737317;81;21128;-62
2022/09/10 01:14:58;;;;;;;5.50;3.00;;;;;;;12.12;69.62;101099.06;1731212;80;21074;-61
2022/09/10 01:17:43;;;;;;;9.60;3.52;;;;;;;12.13;69.74;101104.71;1650670;80;21077;-61
2022/09/10 01:20:49;;;;;;;5.83;3.47;;;;;;;12.19;70.00;101098.98;1730589;80;21054;-62
2022/09/10 01:23:57;;;;;;;7.72;3.40;;;;;;;12.22;69.85;101105.32;1719038;80;21552;-61
2022/09/10 01:27:12;;;;;;;6.58;3.12;;;;;;;12.18;69.89;101103.89;1726445;80;21037;-62
2022/09/10 01:29:48;;;;;;;7.00;3.22;;;;;;;12.14;70.02;101095.83;1711482;81;21059;-63
2022/09/10 01:32:23;;;;;;;6.37;3.02;;;;;;;12.10;69.81;101098.34;1729835;81;21032;-62
2022/09/10 01:35:13;;;;;;;7.67;3.50;;;;;;;12.10;70.05;101097.02;1719102;80;21054;-62
2022/09/10 01:37:43;;;;;;;6.42;3.00;;;;;;;12.13;70.06;101092.84;1711012;80;23029;-62
2022/09/10 01:40:09;;;;;;;8.33;3.10;;;;;;;12.12;70.28;101094.64;1707214;81;21115;-62
2022/09/10 01:42:38;;;;;;;6.83;3.30;;;;;;;12.08;70.47;101094.50;1718217;80;21515;-62
2022/09/10 01:45:08;;;;;;;6.17;3.25;;;;;;;12.04;70.51;101099.66;1721550;81;21130;-62
2022/09/10 01:47:57;;;;;;;6.70;3.15;;;;;;;12.01;70.51;101098.08;1673673;83;21001;-62
2022/09/10 01:50:41;;;;;;;7.62;3.00;;;;;;;12.02;70.43;101094.95;1695772;83;21122;-62
2022/09/10 01:53:29;;;;;;;5.90;2.95;;;;;;;12.01;70.69;101099.39;1731117;80;21052;-62
2022/09/10 01:56:24;;;;;;;6.72;3.30;;;;;;;11.98;70.95;101098.30;1740206;80;21537;-62
2022/09/10 01:58:53;;;;;;;7.92;3.37;;;;;;;11.96;71.26;101093.62;1712234;81;21646;-61
2022/09/10 02:01:37;;;;;;;6.47;3.30;;;;;;;11.93;71.34;101087.25;1722153;80;21054;-61
2022/09/10 02:04:07;;;;;;;5.95;3.05;;;;;;;11.93;71.40;101089.89;1728308;80;21146;-64
2022/09/10 02:06:37;;;;;;;6.92;3.00;;;;;;;11.99;71.44;101079.38;1726020;80;21028;-62
2022/09/10 02:09:03;;;;;;;9.25;3.05;;;;;;;12.03;71.41;101086.09;1720530;80;21058;-62
2022/09/10 02:11:30;;;;;;;7.05;3.45;;;;;;;12.02;71.48;101080.44;1730668;81;21008;-62
2022/09/10 02:13:59;;;;;;;6.12;3.02;;;;;;;12.03;71.74;101076.86;1735962;80;21007;-62
2022/09/10 02:16:57;;;;;;;7.60;3.50;;;;;;;12.06;71.93;101078.78;1736924;80;21162;-62
2022/09/10 02:19:25;;;;;;;6.35;2.95;;;;;;;12.05;71.75;101082.85;1715632;81;21071;-62
2022/09/10 02:21:55;;;;;;;6.12;3.02;;;;;;;12.02;71.83;101081.30;1741104;81;21023;-62
2022/09/10 02:24:22;;;;;;;5.97;2.92;;;;;;;12.06;71.89;101074.83;1736474;81;21094;-62
2022/09/10 02:26:48;;;;;;;5.65;3.15;;;;;;;12.11;72.03;101072.34;1737349;81;21083;-62
2022/09/10 02:29:15;;;;;;;6.03;3.27;;;;;;;12.17;72.01;101070.08;1724752;80;21144;-62
2022/09/10 02:31:42;;;;;;;6.50;3.20;;;;;;;12.17;72.04;101070.53;1732748;81;21496;-62
2022/09/10 02:34:11;;;;;;;7.10;3.00;;;;;;;12.13;71.98;101069.09;1731996;80;21066;-63
2022/09/10 02:36:39;;;;;;;6.00;2.90;;;;;;;12.07;72.12;101068.61;1732593;80;21537;-63
2022/09/10 02:39:06;;;;;;;4.40;2.25;;;;;;;12.04;72.21;101071.47;1732861;80;21078;-62
2022/09/10 02:41:34;;;;;;;6.72;2.92;;;;;;;12.07;72.27;101066.45;1731484;81;21289;-62
2022/09/10 02:44:02;;;;;;;6.10;2.58;;;;;;;12.12;72.19;101068.27;1733017;80;21518;-62
2022/09/10 02:46:29;;;;;;;5.40;2.65;;;;;;;12.08;72.32;101067.63;1744955;80;21067;-62
2022/09/10 02:48:55;;;;;;;5.80;2.70;;;;;;;12.05;72.48;101061.30;1726848;80;21059;-62
2022/09/10 02:51:23;;;;;;;5.17;2.72;;;;;;;12.03;72.73;101057.08;1731743;80;22321;-62
2022/09/10 02:53:50;;;;;;;5.33;2.52;;;;;;;12.02;72.80;101054.92;1738838;80;21162;-62
2022/09/10 02:56:18;;;;;;;4.60;2.20;;;;;;;12.06;72.82;101048.45;1727504;80;21067;-62
2022/09/10 02:58:44;;;;;;;5.10;2.83;;;;;;;12.13;72.95;101049.31;1731679;80;21078;-62
2022/09/10 03:01:14;;;;;;;4.90;2.30;;;;;;;12.16;73.08;101043.32;1738359;80;21075;-63
2022/09/10 03:03:41;;;;;;;6.25;3.00;;;;;;;12.21;73.42;101039.02;1727061;80;21106;-62
2022/09/10 03:06:08;;;;;;;5.10;2.60;;;;;;;12.23;73.36;101038.41;1730036;80;22173;-62
2022/09/10 03:08:34;;;;;;;6.33;2.80;;;;;;;12.23;73.23;101035.78;1738683;80;21046;-62
2022/09/10 03:11:03;;;;;;;5.33;2.12;;;;;;;12.21;73.12;101033.74;1735091;80;21039;-62
2022/09/10 03:13:31;;;;;;;4.78;2.58;;;;;;;12.23;73.11;101037.09;1727760;80;21544;-62
2022/09/10 03:15:58;;;;;;;5.15;2.55;;;;;;;12.25;73.12;101041.31;1725716;81;21037;-62
2022/09/10 03:18:26;;;;;;;5.03;2.58;;;;;;;12.28;73.24;101036.75;1736452;80;21556;-62
2022/09/10 03:20:52;;;;;;;9.33;2.95;;;;;;;12.29;73.33;101031.36;1733823;80;21674;-62
2022/09/10 03:23:19;;;;;;;5.17;2.37;;;;;;;12.28;73.43;101031.47;1723154;81;21053;-61
2022/09/10 03:25:47;;;;;;;5.45;2.42;;;;;;;12.24;73.47;101030.38;1723270;81;21046;-62
2022/09/10 03:28:15;;;;;;;6.17;2.22;;;;;;;12.24;73.40;101033.02;1733898;81;21027;-62
2022/09/10 03:30:42;;;;;;;4.90;2.37;;;;;;;12.29;73.31;101035.77;1716984;81;21519;-62
2022/09/10 03:33:10;;;;;;;4.37;2.33;;;;;;;12.31;73.33;101032.08;1720933;81;21657;-63
2022/09/10 03:35:37;;;;;;;4.83;2.40;;;;;;;12.35;73.49;101024.27;1716475;81;21074;-62
2022/09/10 03:38:04;;;;;;;4.45;2.20;;;;;;;12.37;73.68;101023.69;1725366;81;21046;-62
2022/09/10 03:40:33;;;;;;;6.17;2.30;;;;;;;12.38;73.68;101027.99;1724841;81;21097;-62
2022/09/10 03:43:00;;;;;;;4.78;2.10;;;;;;;12.39;73.74;101030.14;1729202;81;21250;-62
2022/09/10 03:45:27;;;;;;;5.47;2.30;;;;;;;12.40;73.48;101020.79;1726787;81;21039;-62
2022/09/10 03:47:54;;;;;;;4.47;1.90;;;;;;;12.43;73.30;101026.33;1707311;82;21058;-62
2022/09/10 03:50:20;;;;;;;7.30;2.40;;;;;;;12.47;73.34;101026.92;1729763;81;21059;-63
2022/09/10 03:52:47;;;;;;;5.37;2.37;;;;;;;12.49;73.31;101021.90;1727052;81;21031;-63
2022/09/10 03:55:14;;;;;;;5.22;2.15;;;;;;;12.45;73.22;101015.99;1730878;81;22162;-63
2022/09/10 03:57:41;;;;;;;4.08;2.22;;;;;;;12.42;73.33;101017.58;1699946;81;21085;-63
2022/09/10 04:00:12;;;;;;;4.83;2.00;;;;;;;12.39;73.29;101022.22;1727217;81;21034;-63
2022/09/10 04:02:45;;;;;;;4.58;2.17;;;;;;;12.33;73.19;101011.67;1718007;81;21534;-64
2022/09/10 04:05:12;;;;;;;4.15;1.92;;;;;;;12.33;73.25;101015.64;1728518;81;21583;-63
2022/09/10 04:07:40;;;;;;;4.62;2.20;;;;;;;12.35;73.37;101015.03;1725853;81;21129;-63
2022/09/10 04:10:07;;;;;;;4.00;1.98;;;;;;;12.37;73.40;101011.81;1728324;81;21037;-63
2022/09/10 04:12:35;;;;;;;4.22;2.02;;;;;;;12.36;73.52;101014.08;1728180;81;21055;-63
2022/09/10 04:15:03;;;;;;;4.85;2.33;;;;;;;12.36;73.50;101011.94;1720775;81;21113;-63
2022/09/10 04:17:30;;;;;;;4.47;1.98;;;;;;;12.32;73.63;101011.80;1729486;81;21059;-62
2022/09/10 04:19:57;;;;;;;4.35;2.05;;;;;;;12.29;73.61;101013.34;1729938;81;22400;-63
2022/09/10 04:22:23;;;;;;;4.00;1.95;;;;;;;12.32;73.55;101010.47;1731634;81;21792;-63
2022/09/10 04:24:50;;;;;;;5.70;2.10;;;;;;;12.34;73.58;101000.63;1731084;80;21063;-63
2022/09/10 04:27:17;;;;;;;4.78;2.25;;;;;;;12.38;73.69;101003.41;1734590;80;21169;-64
2022/09/10 04:29:43;;;;;;;5.00;2.30;;;;;;;12.37;73.70;101003.04;1740211;80;21046;-63
2022/09/10 04:32:10;;;;;;;5.35;2.70;;;;;;;12.34;73.73;101009.87;1735718;80;21264;-63
2022/09/10 04:34:37;;;;;;;3.98;1.77;;;;;;;12.29;73.74;101009.39;1733777;80;21063;-63
2022/09/10 04:37:05;;;;;;;5.62;2.12;;;;;;;12.24;73.79;101002.68;1734549;80;22157;-63
2022/09/10 04:39:33;;;;;;;4.50;2.08;;;;;;;12.28;73.74;101003.28;1736472;80;21142;-63
2022/09/10 04:42:00;;;;;;;4.25;1.95;;;;;;;12.34;73.84;101009.41;1736956;80;21550;-64
2022/09/10 04:44:28;;;;;;;5.62;2.25;;;;;;;12.36;73.71;101003.53;1721696;80;21208;-63
2022/09/10 04:46:55;;;;;;;4.10;1.90;;;;;;;12.36;73.86;101000.06;1736557;80;21039;-63
2022/09/10 04:49:23;;;;;;;3.47;1.72;;;;;;;12.35;73.79;100997.88;1724916;81;21583;-63
2022/09/10 04:51:50;;;;;;;4.95;2.15;;;;;;;12.31;73.80;100999.58;1732719;81;21035;-63
2022/09/10 04:54:18;;;;;;;4.62;2.08;;;;;;;12.29;73.57;100997.05;1727340;80;21087;-63
2022/09/10 04:56:46;;;;;;;4.75;1.95;;;;;;;12.30;73.44;100993.44;1734291;80;21957;-64
2022/09/10 04:59:13;;;;;;;4.55;2.10;;;;;;;12.34;73.52;101000.17;1734217;80;21091;-63
2022/09/10 05:01:41;;;;;;;4.53;2.00;;;;;;;12.35;73.58;100995.73;1736144;80;21575;-63
2022/09/10 05:04:08;;;;;;;3.98;1.60;;;;;;;12.31;73.56;100996.45;1734916;80;22146;-63
2022/09/10 05:06:36;;;;;;;4.60;1.60;;;;;;;12.27;73.60;100997.62;1732944;80;21022;-62
2022/09/10 05:09:05;;;;;;;3.98;1.70;;;;;;;12.30;73.61;101001.35;1708942;82;21307;-62
2022/09/10 05:11:32;;;;;;;7.15;2.15;;;;;;;12.32;73.72;100995.47;1730593;80;21730;-62
2022/09/10 05:13:59;;;;;;;5.22;2.27;;;;;;;12.31;73.59;100992.49;1734839;80;21118;-61
2022/09/10 05:16:27;;;;;;;4.05;1.70;;;;;;;12.25;73.59;101001.73;1735589;80;21575;-61
2022/09/10 05:18:55;;;;;;;4.58;2.00;;;;;;;12.19;73.71;100996.92;1733563;80;21018;-62
2022/09/10 05:21:23;;;;;;;3.60;1.75;;;;;;;12.18;74.12;100997.03;1738036;80;21091;-60
2022/09/10 05:23:51;;;;;;;5.25;2.02;;;;;;;12.20;74.06;100991.98;1735440;80;21060;-62
2022/09/10 05:26:19;;;;;;;4.25;2.12;;;;;;;12.27;73.68;100993.67;1736761;80;21049;-61
2022/09/10 05:28:46;;;;;;;6.55;2.20;;;;;;;12.32;73.59;100985.41;1734628;80;21126;-61
2022/09/10 05:31:16;;;;;;;5.62;2.40;;;;;;;12.36;73.62;100990.33;1730469;80;21080;-62
2022/09/10 05:33:43;;;;;;;4.87;2.20;;;;;;;12.35;73.68;100983.36;1745905;80;21735;-62
2022/09/10 05:36:12;;;;;;;5.28;2.35;;;;;;;12.32;73.68;100981.45;1741427;80;21121;-61
2022/09/10 05:38:40;;;;;;;3.87;1.98;;;;;;;12.27;73.66;100989.72;1718320;80;21050;-61
2022/09/10 05:41:09;;;;;;;4.60;2.20;;;;;;;12.22;73.59;100983.95;1733211;80;21071;-60
2022/09/10 05:43:40;;;;;;;4.67;1.92;;;;;;;12.21;73.55;100984.44;1731224;80;21046;-60
2022/09/10 05:46:07;;;;;;;4.50;2.22;;;;;;;12.24;73.87;100990.80;1735394;80;21125;-61
2022/09/10 05:48:33;;;;;;;4.33;2.12;;;;;;;12.33;73.81;100985.28;1738173;80;21331;-62
2022/09/10 05:51:01;;;;;;;5.80;3.20;;;;;;;12.32;73.52;100982.27;1728238;80;21050;-61
2022/09/10 05:53:29;;;;;;;4.42;2.30;;;;;;;12.30;73.63;100989.48;1738511;80;21118;-60
2022/09/10 05:55:56;;;;;;;4.65;2.47;;;;;;;12.27;73.50;100985.75;1734668;80;21872;-60
2022/09/10 05:58:23;;;;;;;4.20;2.10;;;;;;;12.24;73.37;100986.84;1733605;80;21074;-61
2022/09/10 06:01:00;;;;;;;4.62;1.80;;;;;;;12.24;73.20;100986.84;1736983;80;21047;-61
2022/09/10 06:03:24;;;;;;;18.87;8.70;;;;;;;12.23;73.11;100980.37;1731611;80;21095;-61
2022/09/10 06:05:54;;;;;;;5.17;2.77;;;;;;;12.24;73.51;100980.74;1730811;80;21123;-64
2022/09/10 06:08:23;;;;;;;4.40;2.10;;;;;;;12.28;73.91;100979.53;1736408;80;22158;-61
2022/09/10 06:11:05;;;;;;;4.03;2.02;;;;;;;12.25;73.50;100983.72;1738426;80;21769;-59
2022/09/10 06:13:38;;;;;;;4.65;2.25;;;;;;;12.21;73.38;100984.94;1737147;80;21114;-62
2022/09/10 06:16:06;;;;;;;4.15;2.05;;;;;;;12.18;73.52;100990.44;1729466;80;21078;-62
2022/09/10 06:18:33;;;;;;;4.25;2.25;;;;;;;12.22;73.26;100995.83;1739817;80;21834;-60
2022/09/10 06:21:08;;;;;;;4.92;2.77;;;;;;;12.22;73.24;100999.33;1736301;80;21098;-60
2022/09/10 06:23:35;;;;;;;5.37;2.67;;;;;;;12.19;73.26;100996.09;1710568;82;21756;-61
2022/09/10 06:26:13;;;;;;;5.08;2.70;;;;;;;12.17;73.42;100992.70;1703240;82;21012;-62
2022/09/10 06:28:42;;;;;;;4.55;2.60;;;;;;;12.14;73.51;100998.21;1691312;82;21111;-61
2022/09/10 06:31:13;;;;;;;4.97;2.80;;;;;;;12.13;73.43;100993.91;1699983;82;21047;-62
2022/09/10 06:33:37;;;;;;;4.65;2.42;;;;;;;12.15;73.33;100990.67;1708243;82;21081;-64
2022/09/10 06:36:05;;;;;;;4.87;2.77;;;;;;;12.17;73.43;100989.61;1708643;82;21256;-64
2022/09/10 06:38:33;;;;;;;4.65;2.72;;;;;;;12.20;73.43;100993.30;1710263;82;21035;-64
2022/09/10 06:41:04;;;;;;;5.67;3.17;;;;;;;12.23;73.82;100986.97;1706446;82;21083;-64
2022/09/10 06:43:35;;;;;;;6.28;3.12;;;;;;;12.23;73.45;100990.92;1692536;82;21090;-64
2022/09/10 06:46:12;;;;;;;5.08;2.90;;;;;;;12.17;73.40;100984.33;1705481;82;21047;-63
2022/09/10 06:48:47;;;;;;;5.08;2.98;;;;;;;12.13;73.49;100985.51;1705637;82;21215;-63
2022/09/10 06:51:15;;;;;;;5.65;3.12;;;;;;;12.18;73.56;100985.16;1698971;82;22149;-62
2022/09/10 06:53:43;;;;;;;5.12;3.20;;;;;;;12.22;73.50;100982.63;1712108;82;21055;-63
2022/09/10 06:56:12;;;;;;;6.37;3.77;;;;;;;12.24;73.61;100979.42;1705125;82;22129;-63
2022/09/10 06:58:39;;;;;;;6.65;3.27;;;;;;;12.23;73.35;100982.52;1711819;82;21035;-64
2022/09/10 07:01:14;;;;;;;5.33;3.12;;;;;;;12.20;73.25;100974.83;1711243;82;21281;-65
2022/09/10 07:03:44;;;;;;;6.00;3.27;;;;;;;12.17;73.10;100977.73;1705342;82;22567;-63
2022/09/10 07:06:16;;;;;;;5.25;3.35;;;;;;;12.17;73.05;100976.88;1709953;82;21101;-64
2022/09/10 07:08:44;;;;;;;7.72;3.70;;;;;;;12.16;72.96;100980.49;1706965;82;21114;-62
2022/09/10 07:11:13;;;;;;;5.55;3.15;;;;;;;12.12;73.04;100978.58;1709640;82;21023;-65
2022/09/10 07:13:40;;;;;;;6.40;3.62;;;;;;;12.05;73.08;100981.30;1702321;82;21286;-66
2022/09/10 07:16:08;;;;;;;5.60;3.50;;;;;;;11.95;73.20;100980.33;1713138;82;21113;-66
2022/09/10 07:18:35;;;;;;;6.05;3.42;;;;;;;11.90;73.58;100988.55;1706766;82;21064;-65
2022/09/10 07:21:11;;;;;;;5.83;3.58;;;;;;;11.93;73.77;100983.56;1705809;82;21059;-65
2022/09/10 07:23:50;;;;;;;5.25;3.17;;;;;;;11.97;73.73;100981.05;1700109;81;65425;-46
2022/09/10 07:26:16;;;;;;;6.35;4.35;;;;;;;11.94;73.66;100995.32;1719295;82;21307;-47
2022/09/10 07:28:45;;;;;;;5.67;3.92;;;;;;;11.88;73.98;100986.06;1696557;82;21008;-45
2022/09/10 07:31:21;;;;;;;6.25;3.80;;;;;;;11.84;74.26;100985.08;1705126;82;21519;-46
2022/09/10 07:33:49;;;;;;;7.90;4.15;;;;;;;11.82;74.30;100981.73;1667806;84;21085;-46
2022/09/10 07:36:17;;;;;;;8.35;4.20;;;;;;;11.84;74.13;100983.27;1668556;84;22206;-60
2022/09/10 07:38:51;;;;;;;6.87;4.62;;;;;;;11.84;74.29;100975.85;1652675;85;21050;-58
2022/09/10 07:41:18;;;;;;;6.58;4.22;;;;;;;11.78;74.49;100978.45;1705157;82;21042;-66
2022/09/10 07:43:45;;;;;;;7.20;4.78;;;;;;;11.78;75.13;100974.50;1669217;84;21369;-60
2022/09/10 07:46:19;;;;;;;6.75;4.08;;;;;;;11.83;74.97;100980.75;1666367;84;21485;-60
2022/09/10 07:48:47;;;;;;;7.53;5.00;;;;;;;11.87;74.57;100987.00;1657214;85;21100;-65
2022/09/10 07:51:18;;;;;;;6.40;4.37;;;;;;;11.89;74.53;100988.20;1678869;84;21129;-65
2022/09/10 07:53:45;;;;;;;6.28;4.45;;;;;;;11.87;74.54;100981.73;1673548;84;21110;-62
2022/09/10 07:56:12;;;;;;;6.00;4.12;;;;;;;11.81;74.58;100982.67;1671772;84;21528;-61
2022/09/10 07:58:39;;;;;;;7.03;4.50;;;;;;;11.78;74.59;100977.14;1671226;84;21351;-61
2022/09/10 08:01:10;;;;;;;6.72;4.53;;;;;;;11.83;74.60;100975.48;1673091;84;21430;-61
2022/09/10 08:03:37;;;;;;;7.67;4.40;;;;;;;11.85;74.58;100978.83;1667383;84;21112;-61
2022/09/10 08:06:05;;;;;;;7.42;4.67;;;;;;;11.83;74.60;100969.72;1671373;84;21162;-63
2022/09/10 08:08:35;;;;;;;8.65;5.08;;;;;;;11.80;74.67;100971.75;1668071;84;21086;-62
2022/09/10 08:11:12;;;;;;;6.65;4.60;;;;;;;11.73;74.73;100960.83;1652650;85;21158;-61
2022/09/10 08:13:43;;;;;;;7.33;4.60;;;;;;;11.75;74.74;100967.30;1655587;85;21138;-61
2022/09/10 08:16:13;;;;;;;7.08;4.95;;;;;;;11.79;74.65;100949.00;1656528;85;21280;-64
2022/09/10 08:18:41;;;;;;;8.25;5.12;;;;;;;11.83;74.70;100951.75;1662708;84;21064;-62
2022/09/10 08:21:09;;;;;;;7.28;5.05;;;;;;;11.80;74.84;100955.93;1658222;85;21020;-63
2022/09/10 08:23:38;;;;;;;6.10;4.60;;;;;;;11.77;74.97;100953.52;1651647;85;21161;-61
2022/09/10 08:26:06;;;;;;;6.72;4.47;;;;;;;11.78;74.86;100960.48;1651350;85;21429;-60
2022/09/10 08:28:35;;;;;;;8.23;5.42;;;;;;;11.79;74.60;100956.91;1643342;85;21173;-62
2022/09/10 08:31:06;;;;;;;7.15;5.00;;;;;;;11.81;74.70;100962.89;1670488;83;21044;-61
2022/09/10 08:33:35;;;;;;;7.62;5.67;;;;;;;11.78;74.72;100963.13;1649049;85;21070;-62
2022/09/10 08:38:08;;;;;;;7.60;4.60;;;;;;;11.85;74.83;100953.78;1795860;77;22654;-65
2022/09/10 08:40:42;;;;;;;7.17;4.65;;;;;;;11.95;74.14;100954.78;1786189;78;21312;-65
2022/09/10 08:43:09;;;;;;;7.30;4.50;;;;;;;11.99;74.03;100954.09;1765755;79;21589;-64
2022/09/10 08:45:36;;;;;;;7.47;4.83;;;;;;;11.95;74.10;100938.96;1778070;78;22201;-65
2022/09/10 08:48:12;;;;;;;7.37;4.60;;;;;;;11.95;74.37;100938.13;1772756;78;21054;-65
2022/09/10 08:50:47;;;;;;;6.35;4.12;;;;;;;11.94;74.52;100928.56;1778461;78;21035;-65
2022/09/10 08:53:34;;;;;;;7.25;5.05;;;;;;;11.99;74.67;100931.19;1771715;78;21022;-65
2022/09/10 08:56:08;;;;;;;7.58;4.90;;;;;;;12.05;74.43;100928.55;1782263;78;22003;-64
2022/09/10 08:58:46;;;;;;;6.67;4.83;;;;;;;12.11;74.53;100934.67;1774702;79;20998;-65
2022/09/10 09:01:35;;;;;;;7.47;4.65;;;;;;;12.10;74.65;100932.16;1783500;78;21049;-65
2022/09/10 09:04:05;;;;;;;6.40;4.42;;;;;;;12.06;74.54;100928.43;1774120;80;21551;-64
2022/09/10 09:06:38;;;;;;;6.10;4.20;;;;;;;12.08;74.46;100930.95;1776295;79;21014;-65
2022/09/10 09:09:05;;;;;;;6.50;4.45;;;;;;;12.12;74.25;100924.50;1784061;79;21080;-65
2022/09/10 09:12:04;;;;;;;7.47;5.10;;;;;;;12.14;74.42;100916.44;1771363;79;21077;-65
2022/09/10 09:14:49;;;;;;;7.12;5.12;;;;;;;12.14;74.59;100923.03;1783457;78;21523;-65
2022/09/10 09:17:32;;;;;;;7.67;5.53;;;;;;;12.11;74.76;100922.80;1781389;79;21491;-65
2022/09/10 09:20:32;;;;;;;8.25;4.97;;;;;;;12.11;74.61;100920.66;1782265;78;21502;-65
2022/09/10 09:23:25;;;;;;;7.42;5.37;;;;;;;12.14;74.49;100923.03;1773177;78;21144;-65
2022/09/10 09:26:05;;;;;;;7.37;5.08;;;;;;;12.14;74.49;100924.34;1776334;80;20993;-65
2022/09/10 09:29:04;;;;;;;7.08;5.15;;;;;;;12.11;74.69;100918.84;1771318;80;21065;-65
2022/09/10 09:31:33;;;;;;;8.30;5.03;;;;;;;12.05;74.78;100912.27;1766615;80;21066;-65
2022/09/10 09:34:06;;;;;;;8.20;4.72;;;;;;;12.04;74.81;100911.89;1750388;78;21094;-65
2022/09/10 09:36:38;;;;;;;6.78;4.50;;;;;;;12.05;74.82;100917.53;1768029;79;21252;-65
2022/09/10 09:39:15;;;;;;;7.25;5.47;;;;;;;12.04;74.85;100918.97;1763594;79;21071;-66
2022/09/10 09:41:54;;;;;;;7.30;4.67;;;;;;;12.02;75.24;100920.86;1760041;79;22024;-65
2022/09/10 09:44:33;;;;;;;7.28;4.42;;;;;;;12.02;75.49;100911.63;1763066;79;22332;-65
2022/09/10 09:47:00;;;;;;;7.70;5.55;;;;;;;12.03;75.52;100904.92;1763228;79;21135;-62
2022/09/10 09:49:27;;;;;;;6.55;4.30;;;;;;;12.12;75.46;100911.77;1759353;80;21221;-63
2022/09/10 09:51:54;;;;;;;8.25;4.65;;;;;;;12.16;75.46;100916.69;1760799;80;21021;-64
2022/09/10 09:54:25;;;;;;;8.08;4.78;;;;;;;12.18;75.55;100906.84;1758797;79;21082;-64
2022/09/10 09:56:53;;;;;;;6.55;4.20;;;;;;;12.20;75.74;100900.13;1762374;79;21048;-64
2022/09/10 09:59:33;;;;;;;6.75;4.20;;;;;;;12.22;75.56;100893.80;1757851;80;21045;-64
2022/09/10 10:02:12;;;;;;;5.95;3.77;;;;;;;12.25;75.42;100891.37;1754904;80;21147;-63
2022/09/10 10:04:41;;;;;;;5.60;3.50;;;;;;;12.32;75.17;100895.20;1761238;79;21026;-64
2022/09/10 10:07:10;;;;;;;6.10;4.05;;;;;;;12.35;75.07;100888.36;1749403;80;21591;-64
2022/09/10 10:09:41;;;;;;;6.80;3.85;;;;;;;12.36;75.06;100887.91;1737363;79;21572;-64
2022/09/10 10:12:18;;;;;;;6.03;4.00;;;;;;;12.32;75.05;100883.81;1758164;79;21524;-63
2022/09/10 10:14:45;;;;;;;5.78;3.50;;;;;;;12.34;75.01;100882.74;1771131;79;21106;-64
2022/09/10 10:17:31;;;;;;;5.78;3.92;;;;;;;12.40;74.89;100878.77;1769902;80;21383;-64
2022/09/10 10:20:07;;;;;;;;;;;;;;;12.43;74.82;100877.20;1754280;80;21555;-64
2022/09/10 10:22:35;;;;;;;7.27;4.57;;;;;;;12.41;74.58;100879.97;1757471;80;20183;-64
2022/09/10 10:25:05;;;;;;;6.92;3.77;;;;;;;12.36;74.78;100874.22;1755842;79;21030;-64
2022/09/10 10:27:40;;;;;;;7.08;4.08;;;;;;;12.38;74.91;100876.25;1757761;79;21520;-64
2022/09/10 10:30:12;;;;;;;7.28;4.30;;;;;;;12.42;74.87;100867.14;1737850;80;21040;-64
2022/09/10 10:32:46;;;;;;;7.12;4.10;;;;;;;12.48;74.79;100875.03;1756725;80;21018;-64
2022/09/10 10:35:34;;;;;;;6.75;4.33;;;;;;;12.47;74.84;100869.38;1756555;79;21020;-64
2022/09/10 10:38:24;;;;;;;7.62;4.20;;;;;;;12.47;74.79;100865.92;1763647;79;21094;-64
2022/09/10 10:41:28;;;;;;;6.80;4.50;;;;;;;12.47;74.68;100867.23;1764147;79;21155;-64
2022/09/10 10:44:22;;;;;;;7.65;5.17;;;;;;;12.53;74.54;100855.70;1756513;79;20991;-64
2022/09/10 10:47:21;;;;;;;8.15;5.28;;;;;;;12.55;74.51;100858.22;1765389;79;21028;-63
2022/09/10 10:49:59;;;;;;;7.35;5.25;;;;;;;12.49;74.58;100850.78;1764960;79;21092;-64
2022/09/10 10:52:53;;;;;;;8.50;5.40;;;;;;;12.42;74.80;100849.98;1763991;79;21001;-64
2022/09/10 10:55:30;;;;;;;7.47;5.30;;;;;;;12.40;74.83;100847.92;1766310;79;21140;-64
2022/09/10 10:58:27;;;;;;;7.78;5.85;;;;;;;12.45;74.82;100837.83;1765610;79;21102;-64
2022/09/10 11:01:05;;;;;;;7.40;5.60;;;;;;;12.49;74.80;100845.51;1758930;79;21017;-64
2022/09/10 11:03:41;;;;;;;8.93;6.28;;;;;;;12.48;74.85;100838.08;1743175;79;21086;-64
2022/09/10 11:06:14;;;;;;;8.25;6.12;;;;;;;12.46;75.00;100829.45;1759720;79;21102;-63
2022/09/10 11:09:16;;;;;;;10.38;6.22;;;;;;;12.44;75.06;100828.75;1771140;79;20983;-64
2022/09/10 11:12:02;;;;;;;9.15;6.65;;;;;;;12.50;74.98;100830.88;1738803;80;20948;-64
2022/09/10 11:14:47;;;;;;;10.40;7.47;;;;;;;12.54;75.12;100824.86;1761733;79;21192;-64
2022/09/10 11:17:37;;;;;;;9.33;7.00;;;;;;;12.54;75.17;100824.86;1759623;79;21077;-63
2022/09/10 11:20:17;;;;;;;8.55;6.58;;;;;;;12.50;75.10;100825.59;1765909;79;21090;-63
2022/09/10 11:23:11;;;;;;;10.65;7.97;;;;;;;12.52;75.12;100826.80;1769071;80;21280;-63
2022/09/10 11:25:46;;;;;;;9.58;7.83;;;;;;;12.58;75.19;100817.89;1771136;79;21048;-64
2022/09/10 11:28:19;;;;;;;10.80;7.42;;;;;;;12.61;75.28;100812.37;1767433;79;21520;-63
2022/09/10 11:30:51;;;;;;;10.70;8.13;;;;;;;12.63;75.38;100810.43;1767924;79;21039;-63
2022/09/10 11:33:26;;;;;;;9.73;7.47;;;;;;;12.62;75.47;100811.41;1763335;79;21105;-63
2022/09/10 11:36:32;;;;;;;8.30;6.67;;;;;;;12.63;75.34;100801.69;1760422;79;21212;-63
2022/09/10 11:39:23;;;;;;;11.33;7.75;;;;;;;12.66;75.14;100793.52;1718415;81;21066;-64
2022/09/10 11:41:51;;;;;;;10.58;8.20;;;;;;;12.66;75.17;100781.63;1738298;80;21055;-64
2022/09/10 11:44:39;;;;;;;10.40;7.78;;;;;;;12.64;75.42;100777.80;1745228;81;21173;-64
2022/09/10 11:47:34;;;;;;;11.63;7.65;;;;;;;12.63;75.70;100785.84;1707113;82;21083;-64
2022/09/10 11:50:05;;;;;;;10.75;8.63;;;;;;;12.70;75.94;100776.94;1698556;83;21379;-64